sensor_id;sensor_type;location;lat;lon;timestamp;temperature;humidity
7117;DHT22;3600;48.568;7.870;2023-07-29T00:01:37;19.00;99.90
7117;DHT22;3600;48.568;7.870;2023-07-29T00:04:08;19.00;99.90
7117;DHT22;3600;48.568;7.870;2023-07-29T00:06:36;19.00;99.90
7117;DHT22;3600;48.568;7.870;2023-07-29T00:09:03;19.00;99.90
7117;DHT22;3600;48.568;7.870;2023-07-29T00:11:30;19.00;99.90
7117;DHT22;3600;48.568;7.870;2023-07-29T00:14:00;19.00;99.90
7117;DHT22;3600;48.568;7.870;2023-07-29T00:16:27;18.90;99.90
7117;DHT22;3600;48.568;7.870;2023-07-29T00:18:53;18.90;99.90
7117;DHT22;3600;48.568;7.870;2023-07-29T00:21:20;19.00;99.90
7117;DHT22;3600;48.568;7.870;2023-07-29T00:23:47;18.90;99.90
7117;DHT22;3600;48.568;7.870;2023-07-29T00:26:14;19.00;99.90
7117;DHT22;3600;48.568;7.870;2023-07-29T00:28:41;19.00;99.90
7117;DHT22;3600;48.568;7.870;2023-07-29T00:31:08;18.90;99.90
7117;DHT22;3600;48.568;7.870;2023-07-29T00:33:35;18.90;99.90
7117;DHT22;3600;48.568;7.870;2023-07-29T00:36:01;18.90;99.90
7117;DHT22;3600;48.568;7.870;2023-07-29T00:38:29;18.80;99.90
7117;DHT22;3600;48.568;7.870;2023-07-29T00:40:57;18.80;99.90
7117;DHT22;3600;48.568;7.870;2023-07-29T00:43:25;18.80;99.90
7117;DHT22;3600;48.568;7.870;2023-07-29T00:45:52;18.90;99.90
7117;DHT22;3600;48.568;7.870;2023-07-29T00:48:19;18.90;99.90
7117;DHT22;3600;48.568;7.870;2023-07-29T00:50:47;18.80;99.90
7117;DHT22;3600;48.568;7.870;2023-07-29T00:53:14;18.80;99.90
7117;DHT22;3600;48.568;7.870;2023-07-29T00:55:41;18.70;99.90
7117;DHT22;3600;48.568;7.870;2023-07-29T00:58:09;18.70;99.90
7117;DHT22;3600;48.568;7.870;2023-07-29T01:03:55;18.70;99.90
7117;DHT22;3600;48.568;7.870;2023-07-29T01:07:17;18.70;99.90
7117;DHT22;3600;48.568;7.870;2023-07-29T01:10:50;18.70;99.90
7117;DHT22;3600;48.568;7.870;2023-07-29T01:13:50;18.70;99.90
7117;DHT22;3600;48.568;7.870;2023-07-29T01:16:57;18.70;99.90
7117;DHT22;3600;48.568;7.870;2023-07-29T01:22:42;18.70;99.90
7117;DHT22;3600;48.568;7.870;2023-07-29T01:25:09;18.70;99.90
7117;DHT22;3600;48.568;7.870;2023-07-29T01:27:36;18.70;99.90
7117;DHT22;3600;48.568;7.870;2023-07-29T01:30:03;18.70;99.90
7117;DHT22;3600;48.568;7.870;2023-07-29T01:32:43;18.70;99.90
7117;DHT22;3600;48.568;7.870;2023-07-29T01:35:19;18.70;99.90
7117;DHT22;3600;48.568;7.870;2023-07-29T01:37:51;18.70;99.90
7117;DHT22;3600;48.568;7.870;2023-07-29T01:40:18;18.70;99.90
7117;DHT22;3600;48.568;7.870;2023-07-29T01:42:46;18.70;99.90
7117;DHT22;3600;48.568;7.870;2023-07-29T01:45:13;18.70;99.90
7117;DHT22;3600;48.568;7.870;2023-07-29T01:47:40;18.70;99.90
7117;DHT22;3600;48.568;7.870;2023-07-29T01:50:08;18.70;99.90
7117;DHT22;3600;48.568;7.870;2023-07-29T01:52:35;18.70;99.90
7117;DHT22;3600;48.568;7.870;2023-07-29T01:55:03;18.70;99.90
7117;DHT22;3600;48.568;7.870;2023-07-29T01:57:29;18.70;99.90
7117;DHT22;3600;48.568;7.870;2023-07-29T01:59:56;18.70;99.90
7117;DHT22;3600;48.568;7.870;2023-07-29T02:02:26;18.80;99.90
7117;DHT22;3600;48.568;7.870;2023-07-29T02:04:53;18.80;99.90
7117;DHT22;3600;48.568;7.870;2023-07-29T02:07:22;18.70;99.90
7117;DHT22;3600;48.568;7.870;2023-07-29T02:09:49;18.70;99.90
7117;DHT22;3600;48.568;7.870;2023-07-29T02:12:16;18.70;99.90
7117;DHT22;3600;48.568;7.870;2023-07-29T02:14:42;18.70;99.90
7117;DHT22;3600;48.568;7.870;2023-07-29T02:17:09;18.70;99.90
7117;DHT22;3600;48.568;7.870;2023-07-29T02:19:36;18.70;99.90
7117;DHT22;3600;48.568;7.870;2023-07-29T02:22:03;18.80;99.90
7117;DHT22;3600;48.568;7.870;2023-07-29T02:24:30;18.80;99.90
7117;DHT22;3600;48.568;7.870;2023-07-29T02:26:57;18.80;99.90
7117;DHT22;3600;48.568;7.870;2023-07-29T02:29:23;18.80;99.90
7117;DHT22;3600;48.568;7.870;2023-07-29T02:31:51;18.80;99.90
7117;DHT22;3600;48.568;7.870;2023-07-29T02:34:18;18.80;99.90
7117;DHT22;3600;48.568;7.870;2023-07-29T02:36:45;18.80;99.90
7117;DHT22;3600;48.568;7.870;2023-07-29T02:39:12;18.80;99.90
7117;DHT22;3600;48.568;7.870;2023-07-29T02:41:39;18.80;99.90
7117;DHT22;3600;48.568;7.870;2023-07-29T02:44:05;18.80;99.90
7117;DHT22;3600;48.568;7.870;2023-07-29T02:46:33;18.80;99.90
7117;DHT22;3600;48.568;7.870;2023-07-29T02:49:02;18.70;99.90
7117;DHT22;3600;48.568;7.870;2023-07-29T02:51:30;18.70;99.90
7117;DHT22;3600;48.568;7.870;2023-07-29T02:53:57;18.80;99.90
7117;DHT22;3600;48.568;7.870;2023-07-29T02:56:24;18.80;99.90
7117;DHT22;3600;48.568;7.870;2023-07-29T02:58:51;18.80;99.90
7117;DHT22;3600;48.568;7.870;2023-07-29T03:01:20;18.70;99.90
7117;DHT22;3600;48.568;7.870;2023-07-29T03:03:47;18.70;99.90
7117;DHT22;3600;48.568;7.870;2023-07-29T03:06:14;18.80;99.90
7117;DHT22;3600;48.568;7.870;2023-07-29T03:08:42;18.70;99.90
7117;DHT22;3600;48.568;7.870;2023-07-29T03:11:13;18.70;99.90
7117;DHT22;3600;48.568;7.870;2023-07-29T03:13:40;18.70;99.90
7117;DHT22;3600;48.568;7.870;2023-07-29T03:16:12;18.70;99.90
7117;DHT22;3600;48.568;7.870;2023-07-29T03:18:41;18.70;99.90
7117;DHT22;3600;48.568;7.870;2023-07-29T03:21:09;18.60;99.90
7117;DHT22;3600;48.568;7.870;2023-07-29T03:23:37;18.60;99.90
7117;DHT22;3600;48.568;7.870;2023-07-29T03:26:04;18.60;99.90
7117;DHT22;3600;48.568;7.870;2023-07-29T03:28:41;18.60;99.90
7117;DHT22;3600;48.568;7.870;2023-07-29T03:31:09;18.60;99.90
7117;DHT22;3600;48.568;7.870;2023-07-29T03:33:36;18.60;99.90
7117;DHT22;3600;48.568;7.870;2023-07-29T03:36:03;18.60;99.90
7117;DHT22;3600;48.568;7.870;2023-07-29T03:38:30;18.60;99.90
7117;DHT22;3600;48.568;7.870;2023-07-29T03:40:57;18.60;99.90
7117;DHT22;3600;48.568;7.870;2023-07-29T03:43:24;18.70;99.90
7117;DHT22;3600;48.568;7.870;2023-07-29T03:45:51;18.70;99.90
7117;DHT22;3600;48.568;7.870;2023-07-29T03:48:17;18.70;99.90
7117;DHT22;3600;48.568;7.870;2023-07-29T03:50:44;18.70;99.90
7117;DHT22;3600;48.568;7.870;2023-07-29T03:53:11;18.70;99.90
7117;DHT22;3600;48.568;7.870;2023-07-29T03:55:38;18.70;99.90
7117;DHT22;3600;48.568;7.870;2023-07-29T03:58:04;18.70;99.90
7117;DHT22;3600;48.568;7.870;2023-07-29T04:00:31;18.80;99.90
7117;DHT22;3600;48.568;7.870;2023-07-29T04:02:58;18.80;99.90
7117;DHT22;3600;48.568;7.870;2023-07-29T04:05:25;18.70;99.90
7117;DHT22;3600;48.568;7.870;2023-07-29T04:07:55;18.70;99.90
7117;DHT22;3600;48.568;7.870;2023-07-29T04:10:22;18.70;99.90
7117;DHT22;3600;48.568;7.870;2023-07-29T04:12:48;18.80;99.90
7117;DHT22;3600;48.568;7.870;2023-07-29T04:15:15;18.70;99.90
7117;DHT22;3600;48.568;7.870;2023-07-29T04:17:42;18.70;99.90
7117;DHT22;3600;48.568;7.870;2023-07-29T04:20:10;18.70;99.90
7117;DHT22;3600;48.568;7.870;2023-07-29T04:22:37;18.70;99.90
7117;DHT22;3600;48.568;7.870;2023-07-29T04:25:04;18.60;99.90
7117;DHT22;3600;48.568;7.870;2023-07-29T04:27:31;18.60;99.90
7117;DHT22;3600;48.568;7.870;2023-07-29T04:29:58;18.60;99.90
7117;DHT22;3600;48.568;7.870;2023-07-29T04:32:25;18.60;99.90
7117;DHT22;3600;48.568;7.870;2023-07-29T04:34:52;18.60;99.90
7117;DHT22;3600;48.568;7.870;2023-07-29T04:37:19;18.60;99.90
7117;DHT22;3600;48.568;7.870;2023-07-29T04:39:46;18.60;99.90
7117;DHT22;3600;48.568;7.870;2023-07-29T04:42:13;18.60;99.90
7117;DHT22;3600;48.568;7.870;2023-07-29T04:44:40;18.70;99.90
7117;DHT22;3600;48.568;7.870;2023-07-29T04:47:08;18.60;99.90
7117;DHT22;3600;48.568;7.870;2023-07-29T04:49:35;18.60;99.90
7117;DHT22;3600;48.568;7.870;2023-07-29T04:52:02;18.70;99.90
7117;DHT22;3600;48.568;7.870;2023-07-29T04:54:28;18.70;99.90
7117;DHT22;3600;48.568;7.870;2023-07-29T04:56:55;18.70;99.90
7117;DHT22;3600;48.568;7.870;2023-07-29T04:59:22;18.70;99.90
7117;DHT22;3600;48.568;7.870;2023-07-29T05:01:50;18.70;99.90
7117;DHT22;3600;48.568;7.870;2023-07-29T05:04:20;18.70;99.90
7117;DHT22;3600;48.568;7.870;2023-07-29T05:06:48;18.70;99.90
7117;DHT22;3600;48.568;7.870;2023-07-29T05:09:16;18.70;99.90
7117;DHT22;3600;48.568;7.870;2023-07-29T05:11:44;18.70;99.90
7117;DHT22;3600;48.568;7.870;2023-07-29T05:14:15;18.70;99.90
7117;DHT22;3600;48.568;7.870;2023-07-29T05:16:42;18.80;99.90
7117;DHT22;3600;48.568;7.870;2023-07-29T05:19:09;18.80;99.90
7117;DHT22;3600;48.568;7.870;2023-07-29T05:21:37;18.80;99.90
7117;DHT22;3600;48.568;7.870;2023-07-29T05:24:05;18.80;99.90
7117;DHT22;3600;48.568;7.870;2023-07-29T05:26:31;18.80;99.90
7117;DHT22;3600;48.568;7.870;2023-07-29T05:28:59;18.80;99.90
7117;DHT22;3600;48.568;7.870;2023-07-29T05:31:25;18.80;99.90
7117;DHT22;3600;48.568;7.870;2023-07-29T05:33:52;18.80;99.90
7117;DHT22;3600;48.568;7.870;2023-07-29T05:36:19;18.80;99.90
7117;DHT22;3600;48.568;7.870;2023-07-29T05:38:46;18.80;99.90
7117;DHT22;3600;48.568;7.870;2023-07-29T05:41:13;18.80;99.90
7117;DHT22;3600;48.568;7.870;2023-07-29T05:43:40;18.80;99.90
7117;DHT22;3600;48.568;7.870;2023-07-29T05:46:09;18.80;99.90
7117;DHT22;3600;48.568;7.870;2023-07-29T05:48:38;18.80;99.90
7117;DHT22;3600;48.568;7.870;2023-07-29T05:51:05;18.80;99.90
7117;DHT22;3600;48.568;7.870;2023-07-29T05:53:32;18.80;99.90
7117;DHT22;3600;48.568;7.870;2023-07-29T05:55:59;18.80;99.90
7117;DHT22;3600;48.568;7.870;2023-07-29T05:58:26;18.80;99.90
7117;DHT22;3600;48.568;7.870;2023-07-29T06:00:53;18.80;99.90
7117;DHT22;3600;48.568;7.870;2023-07-29T06:03:20;18.80;99.90
7117;DHT22;3600;48.568;7.870;2023-07-29T06:05:48;18.80;99.90
7117;DHT22;3600;48.568;7.870;2023-07-29T06:08:19;18.80;99.90
7117;DHT22;3600;48.568;7.870;2023-07-29T06:10:46;18.80;99.90
7117;DHT22;3600;48.568;7.870;2023-07-29T06:13:12;18.80;99.90
7117;DHT22;3600;48.568;7.870;2023-07-29T06:15:39;18.90;99.90
7117;DHT22;3600;48.568;7.870;2023-07-29T06:18:06;18.90;99.90
7117;DHT22;3600;48.568;7.870;2023-07-29T06:20:33;18.90;99.90
7117;DHT22;3600;48.568;7.870;2023-07-29T06:23:00;18.90;99.90
7117;DHT22;3600;48.568;7.870;2023-07-29T06:25:26;18.90;99.90
7117;DHT22;3600;48.568;7.870;2023-07-29T06:27:53;18.90;99.90
7117;DHT22;3600;48.568;7.870;2023-07-29T06:30:20;19.00;99.90
7117;DHT22;3600;48.568;7.870;2023-07-29T06:32:54;19.00;99.90
7117;DHT22;3600;48.568;7.870;2023-07-29T06:35:21;19.00;99.90
7117;DHT22;3600;48.568;7.870;2023-07-29T06:37:48;19.00;99.90
7117;DHT22;3600;48.568;7.870;2023-07-29T06:40:15;19.00;99.90
7117;DHT22;3600;48.568;7.870;2023-07-29T06:42:43;19.10;99.90
7117;DHT22;3600;48.568;7.870;2023-07-29T06:45:10;19.10;99.90
7117;DHT22;3600;48.568;7.870;2023-07-29T06:47:37;19.10;99.90
7117;DHT22;3600;48.568;7.870;2023-07-29T06:50:05;19.10;99.90
7117;DHT22;3600;48.568;7.870;2023-07-29T06:52:32;19.10;99.90
7117;DHT22;3600;48.568;7.870;2023-07-29T06:54:58;19.10;99.90
7117;DHT22;3600;48.568;7.870;2023-07-29T06:57:25;19.20;99.90
7117;DHT22;3600;48.568;7.870;2023-07-29T06:59:52;19.20;99.90
7117;DHT22;3600;48.568;7.870;2023-07-29T07:02:19;19.30;99.90
7117;DHT22;3600;48.568;7.870;2023-07-29T07:04:46;19.30;99.90
7117;DHT22;3600;48.568;7.870;2023-07-29T07:07:12;19.40;99.90
7117;DHT22;3600;48.568;7.870;2023-07-29T07:09:39;19.50;99.90
7117;DHT22;3600;48.568;7.870;2023-07-29T07:12:06;19.50;99.90
7117;DHT22;3600;48.568;7.870;2023-07-29T07:14:33;19.70;99.90
7117;DHT22;3600;48.568;7.870;2023-07-29T07:17:00;19.80;99.90
7117;DHT22;3600;48.568;7.870;2023-07-29T07:19:27;19.80;99.90
7117;DHT22;3600;48.568;7.870;2023-07-29T07:21:54;19.80;99.90
7117;DHT22;3600;48.568;7.870;2023-07-29T07:24:21;19.90;99.90
7117;DHT22;3600;48.568;7.870;2023-07-29T07:26:48;19.90;99.90
7117;DHT22;3600;48.568;7.870;2023-07-29T07:29:15;19.90;99.90
7117;DHT22;3600;48.568;7.870;2023-07-29T07:31:53;20.00;99.90
7117;DHT22;3600;48.568;7.870;2023-07-29T07:34:20;20.00;99.90
7117;DHT22;3600;48.568;7.870;2023-07-29T07:36:48;20.10;99.90
7117;DHT22;3600;48.568;7.870;2023-07-29T07:39:15;20.20;99.90
7117;DHT22;3600;48.568;7.870;2023-07-29T07:41:42;20.30;99.90
7117;DHT22;3600;48.568;7.870;2023-07-29T07:44:09;20.40;99.90
7117;DHT22;3600;48.568;7.870;2023-07-29T07:46:37;20.40;99.90
7117;DHT22;3600;48.568;7.870;2023-07-29T07:49:05;20.50;99.90
7117;DHT22;3600;48.568;7.870;2023-07-29T07:51:31;20.60;99.90
7117;DHT22;3600;48.568;7.870;2023-07-29T07:53:58;20.70;99.90
7117;DHT22;3600;48.568;7.870;2023-07-29T07:56:25;20.70;99.90
7117;DHT22;3600;48.568;7.870;2023-07-29T07:58:52;20.70;99.90
7117;DHT22;3600;48.568;7.870;2023-07-29T08:01:19;20.80;99.90
7117;DHT22;3600;48.568;7.870;2023-07-29T08:03:46;20.90;99.90
7117;DHT22;3600;48.568;7.870;2023-07-29T08:06:13;21.00;99.90
7117;DHT22;3600;48.568;7.870;2023-07-29T08:08:42;21.00;99.90
7117;DHT22;3600;48.568;7.870;2023-07-29T08:11:09;21.20;99.90
7117;DHT22;3600;48.568;7.870;2023-07-29T08:13:36;21.30;99.90
7117;DHT22;3600;48.568;7.870;2023-07-29T08:16:03;21.30;99.90
7117;DHT22;3600;48.568;7.870;2023-07-29T08:18:34;21.40;99.90
7117;DHT22;3600;48.568;7.870;2023-07-29T08:21:01;21.50;99.90
7117;DHT22;3600;48.568;7.870;2023-07-29T08:23:32;21.50;99.90
7117;DHT22;3600;48.568;7.870;2023-07-29T08:26:02;21.50;99.90
7117;DHT22;3600;48.568;7.870;2023-07-29T08:28:32;21.50;99.90
7117;DHT22;3600;48.568;7.870;2023-07-29T08:31:00;21.60;99.90
7117;DHT22;3600;48.568;7.870;2023-07-29T08:33:27;21.70;99.90
7117;DHT22;3600;48.568;7.870;2023-07-29T08:35:54;21.70;99.90
7117;DHT22;3600;48.568;7.870;2023-07-29T08:38:21;21.80;99.90
7117;DHT22;3600;48.568;7.870;2023-07-29T08:43:29;21.90;99.90
7117;DHT22;3600;48.568;7.870;2023-07-29T08:45:58;21.90;99.90
7117;DHT22;3600;48.568;7.870;2023-07-29T08:48:42;21.80;99.90
7117;DHT22;3600;48.568;7.870;2023-07-29T08:51:11;21.70;99.90
7117;DHT22;3600;48.568;7.870;2023-07-29T08:53:39;21.60;99.90
7117;DHT22;3600;48.568;7.870;2023-07-29T08:56:07;21.60;99.90
7117;DHT22;3600;48.568;7.870;2023-07-29T08:58:36;21.50;99.90
7117;DHT22;3600;48.568;7.870;2023-07-29T09:01:04;21.40;99.90
7117;DHT22;3600;48.568;7.870;2023-07-29T09:03:32;21.30;99.90
7117;DHT22;3600;48.568;7.870;2023-07-29T09:05:59;21.20;99.90
7117;DHT22;3600;48.568;7.870;2023-07-29T09:08:28;21.20;99.90
7117;DHT22;3600;48.568;7.870;2023-07-29T09:10:55;21.20;99.90
7117;DHT22;3600;48.568;7.870;2023-07-29T09:13:23;21.20;99.90
7117;DHT22;3600;48.568;7.870;2023-07-29T09:15:54;21.30;99.90
7117;DHT22;3600;48.568;7.870;2023-07-29T09:18:22;21.40;99.90
7117;DHT22;3600;48.568;7.870;2023-07-29T09:20:50;21.50;99.90
7117;DHT22;3600;48.568;7.870;2023-07-29T09:23:17;21.60;99.90
7117;DHT22;3600;48.568;7.870;2023-07-29T09:25:46;21.70;99.90
7117;DHT22;3600;48.568;7.870;2023-07-29T09:28:15;21.70;99.90
7117;DHT22;3600;48.568;7.870;2023-07-29T09:30:45;21.80;99.90
7117;DHT22;3600;48.568;7.870;2023-07-29T09:33:13;21.90;99.90
7117;DHT22;3600;48.568;7.870;2023-07-29T09:35:41;22.00;99.90
7117;DHT22;3600;48.568;7.870;2023-07-29T09:38:08;22.10;99.90
7117;DHT22;3600;48.568;7.870;2023-07-29T09:40:41;22.20;99.90
7117;DHT22;3600;48.568;7.870;2023-07-29T09:43:09;22.20;99.90
7117;DHT22;3600;48.568;7.870;2023-07-29T09:45:37;22.20;99.90
7117;DHT22;3600;48.568;7.870;2023-07-29T09:48:05;22.20;99.90
7117;DHT22;3600;48.568;7.870;2023-07-29T09:50:42;22.20;99.90
7117;DHT22;3600;48.568;7.870;2023-07-29T09:53:10;22.20;99.90
7117;DHT22;3600;48.568;7.870;2023-07-29T09:55:37;22.20;99.90
7117;DHT22;3600;48.568;7.870;2023-07-29T09:58:04;22.30;99.90
7117;DHT22;3600;48.568;7.870;2023-07-29T10:00:35;22.20;99.90
7117;DHT22;3600;48.568;7.870;2023-07-29T10:03:02;22.30;99.90
7117;DHT22;3600;48.568;7.870;2023-07-29T10:05:30;22.30;99.90
7117;DHT22;3600;48.568;7.870;2023-07-29T10:08:00;22.40;99.90
7117;DHT22;3600;48.568;7.870;2023-07-29T10:10:28;22.50;99.90
7117;DHT22;3600;48.568;7.870;2023-07-29T10:12:59;22.50;99.90
7117;DHT22;3600;48.568;7.870;2023-07-29T10:15:33;22.50;99.90
7117;DHT22;3600;48.568;7.870;2023-07-29T10:18:07;22.50;99.90
7117;DHT22;3600;48.568;7.870;2023-07-29T10:20:35;22.60;99.90
7117;DHT22;3600;48.568;7.870;2023-07-29T10:23:07;22.50;99.90
7117;DHT22;3600;48.568;7.870;2023-07-29T10:25:38;22.60;99.90
7117;DHT22;3600;48.568;7.870;2023-07-29T10:28:08;22.60;99.90
7117;DHT22;3600;48.568;7.870;2023-07-29T10:30:36;22.60;99.90
7117;DHT22;3600;48.568;7.870;2023-07-29T10:33:05;22.70;99.90
7117;DHT22;3600;48.568;7.870;2023-07-29T10:35:34;22.70;99.90
7117;DHT22;3600;48.568;7.870;2023-07-29T10:38:02;22.70;99.90
7117;DHT22;3600;48.568;7.870;2023-07-29T10:40:51;22.80;99.90
7117;DHT22;3600;48.568;7.870;2023-07-29T10:43:36;22.80;99.90
7117;DHT22;3600;48.568;7.870;2023-07-29T10:46:18;22.90;99.90
7117;DHT22;3600;48.568;7.870;2023-07-29T10:48:54;22.90;99.90
7117;DHT22;3600;48.568;7.870;2023-07-29T10:51:23;23.00;99.90
7117;DHT22;3600;48.568;7.870;2023-07-29T10:56:36;23.20;99.90
7117;DHT22;3600;48.568;7.870;2023-07-29T11:01:51;23.10;99.90
7117;DHT22;3600;48.568;7.870;2023-07-29T11:07:31;23.40;99.90
7117;DHT22;3600;48.568;7.870;2023-07-29T11:10:09;23.60;99.90
7117;DHT22;3600;48.568;7.870;2023-07-29T11:12:41;23.80;99.90
7117;DHT22;3600;48.568;7.870;2023-07-29T11:17:47;23.80;99.90
7117;DHT22;3600;48.568;7.870;2023-07-29T11:20:15;23.60;99.90
7117;DHT22;3600;48.568;7.870;2023-07-29T11:22:43;23.80;99.90
7117;DHT22;3600;48.568;7.870;2023-07-29T11:25:13;24.00;99.90
7117;DHT22;3600;48.568;7.870;2023-07-29T11:27:40;24.10;99.90
7117;DHT22;3600;48.568;7.870;2023-07-29T11:30:09;24.10;99.90
7117;DHT22;3600;48.568;7.870;2023-07-29T11:32:38;24.10;99.90
7117;DHT22;3600;48.568;7.870;2023-07-29T11:35:10;24.20;99.90
7117;DHT22;3600;48.568;7.870;2023-07-29T11:37:39;24.20;99.90
7117;DHT22;3600;48.568;7.870;2023-07-29T11:40:08;24.40;99.90
7117;DHT22;3600;48.568;7.870;2023-07-29T11:42:49;24.50;99.90
7117;DHT22;3600;48.568;7.870;2023-07-29T11:45:21;24.60;99.90
7117;DHT22;3600;48.568;7.870;2023-07-29T11:48:06;24.80;99.90
7117;DHT22;3600;48.568;7.870;2023-07-29T11:50:35;24.70;99.90
7117;DHT22;3600;48.568;7.870;2023-07-29T11:53:07;24.50;99.90
7117;DHT22;3600;48.568;7.870;2023-07-29T11:55:44;24.70;99.90
7117;DHT22;3600;48.568;7.870;2023-07-29T11:58:11;24.70;99.90
7117;DHT22;3600;48.568;7.870;2023-07-29T12:00:38;24.80;99.90
7117;DHT22;3600;48.568;7.870;2023-07-29T12:03:05;24.80;99.90
7117;DHT22;3600;48.568;7.870;2023-07-29T12:05:32;24.80;99.90
7117;DHT22;3600;48.568;7.870;2023-07-29T12:07:59;24.80;99.90
7117;DHT22;3600;48.568;7.870;2023-07-29T12:10:29;24.70;99.90
7117;DHT22;3600;48.568;7.870;2023-07-29T12:12:56;24.70;99.90
7117;DHT22;3600;48.568;7.870;2023-07-29T12:15:27;24.80;99.90
7117;DHT22;3600;48.568;7.870;2023-07-29T12:17:56;24.90;99.90
7117;DHT22;3600;48.568;7.870;2023-07-29T12:20:24;25.00;99.90
7117;DHT22;3600;48.568;7.870;2023-07-29T12:22:53;25.10;99.90
7117;DHT22;3600;48.568;7.870;2023-07-29T12:25:21;25.20;99.90
7117;DHT22;3600;48.568;7.870;2023-07-29T12:27:48;25.30;99.90
7117;DHT22;3600;48.568;7.870;2023-07-29T12:30:22;25.60;99.90
7117;DHT22;3600;48.568;7.870;2023-07-29T12:32:49;25.70;99.90
7117;DHT22;3600;48.568;7.870;2023-07-29T12:35:16;25.60;99.90
7117;DHT22;3600;48.568;7.870;2023-07-29T12:37:43;25.30;99.90
7117;DHT22;3600;48.568;7.870;2023-07-29T12:40:23;25.50;99.90
7117;DHT22;3600;48.568;7.870;2023-07-29T12:42:51;25.70;99.90
7117;DHT22;3600;48.568;7.870;2023-07-29T12:45:19;25.80;99.90
7117;DHT22;3600;48.568;7.870;2023-07-29T12:47:46;25.70;99.90
7117;DHT22;3600;48.568;7.870;2023-07-29T12:50:13;25.70;99.90
7117;DHT22;3600;48.568;7.870;2023-07-29T12:52:39;25.70;99.90
7117;DHT22;3600;48.568;7.870;2023-07-29T12:55:07;25.70;99.90
7117;DHT22;3600;48.568;7.870;2023-07-29T12:57:43;25.60;99.90
7117;DHT22;3600;48.568;7.870;2023-07-29T13:00:11;25.30;99.90
7117;DHT22;3600;48.568;7.870;2023-07-29T13:02:39;25.40;99.90
7117;DHT22;3600;48.568;7.870;2023-07-29T13:05:08;25.40;99.90
7117;DHT22;3600;48.568;7.870;2023-07-29T13:07:39;25.50;99.90
7117;DHT22;3600;48.568;7.870;2023-07-29T13:10:06;25.60;99.90
7117;DHT22;3600;48.568;7.870;2023-07-29T13:12:33;25.70;99.90
7117;DHT22;3600;48.568;7.870;2023-07-29T13:15:00;25.50;99.90
7117;DHT22;3600;48.568;7.870;2023-07-29T13:17:27;25.60;99.90
7117;DHT22;3600;48.568;7.870;2023-07-29T13:19:54;25.70;99.90
7117;DHT22;3600;48.568;7.870;2023-07-29T13:22:21;25.70;99.90
7117;DHT22;3600;48.568;7.870;2023-07-29T13:24:48;25.60;99.90
7117;DHT22;3600;48.568;7.870;2023-07-29T13:27:15;25.50;99.90
7117;DHT22;3600;48.568;7.870;2023-07-29T13:29:42;25.50;99.90
7117;DHT22;3600;48.568;7.870;2023-07-29T13:32:10;25.50;99.90
7117;DHT22;3600;48.568;7.870;2023-07-29T13:34:37;25.50;99.90
7117;DHT22;3600;48.568;7.870;2023-07-29T13:37:06;25.40;99.90
7117;DHT22;3600;48.568;7.870;2023-07-29T13:39:36;25.40;99.90
7117;DHT22;3600;48.568;7.870;2023-07-29T13:42:03;25.30;99.90
7117;DHT22;3600;48.568;7.870;2023-07-29T13:44:29;25.20;99.90
7117;DHT22;3600;48.568;7.870;2023-07-29T13:46:59;25.10;99.90
7117;DHT22;3600;48.568;7.870;2023-07-29T13:49:26;25.10;99.90
7117;DHT22;3600;48.568;7.870;2023-07-29T13:51:53;25.10;99.90
7117;DHT22;3600;48.568;7.870;2023-07-29T13:54:20;25.10;99.90
7117;DHT22;3600;48.568;7.870;2023-07-29T13:56:48;25.00;99.90
7117;DHT22;3600;48.568;7.870;2023-07-29T13:59:15;25.00;99.90
7117;DHT22;3600;48.568;7.870;2023-07-29T14:01:44;25.00;99.90
7117;DHT22;3600;48.568;7.870;2023-07-29T14:04:11;24.90;99.90
7117;DHT22;3600;48.568;7.870;2023-07-29T14:06:38;25.00;99.90
7117;DHT22;3600;48.568;7.870;2023-07-29T14:09:07;25.00;99.90
7117;DHT22;3600;48.568;7.870;2023-07-29T14:11:34;25.00;99.90
7117;DHT22;3600;48.568;7.870;2023-07-29T14:14:11;25.00;99.90
7117;DHT22;3600;48.568;7.870;2023-07-29T14:16:38;25.00;99.90
7117;DHT22;3600;48.568;7.870;2023-07-29T14:19:06;25.00;99.90
7117;DHT22;3600;48.568;7.870;2023-07-29T14:21:33;25.10;99.90
7117;DHT22;3600;48.568;7.870;2023-07-29T14:24:00;25.20;99.90
7117;DHT22;3600;48.568;7.870;2023-07-29T14:26:27;25.20;99.90
7117;DHT22;3600;48.568;7.870;2023-07-29T14:28:54;25.40;99.90
7117;DHT22;3600;48.568;7.870;2023-07-29T14:31:21;25.70;99.90
7117;DHT22;3600;48.568;7.870;2023-07-29T14:33:49;25.90;99.90
7117;DHT22;3600;48.568;7.870;2023-07-29T14:36:16;26.00;99.90
7117;DHT22;3600;48.568;7.870;2023-07-29T14:38:43;26.00;99.90
7117;DHT22;3600;48.568;7.870;2023-07-29T14:41:10;26.20;99.90
7117;DHT22;3600;48.568;7.870;2023-07-29T14:43:37;26.50;99.90
7117;DHT22;3600;48.568;7.870;2023-07-29T14:46:05;26.60;99.90
7117;DHT22;3600;48.568;7.870;2023-07-29T14:48:32;26.90;99.90
7117;DHT22;3600;48.568;7.870;2023-07-29T14:50:59;27.00;99.90
7117;DHT22;3600;48.568;7.870;2023-07-29T14:53:26;27.00;99.90
7117;DHT22;3600;48.568;7.870;2023-07-29T14:55:52;27.00;99.90
7117;DHT22;3600;48.568;7.870;2023-07-29T14:58:23;26.90;99.90
7117;DHT22;3600;48.568;7.870;2023-07-29T15:00:52;27.00;99.90
7117;DHT22;3600;48.568;7.870;2023-07-29T15:13:52;26.60;99.90
7117;DHT22;3600;48.568;7.870;2023-07-29T15:16:23;26.70;99.90
7117;DHT22;3600;48.568;7.870;2023-07-29T15:18:51;26.90;99.90
7117;DHT22;3600;48.568;7.870;2023-07-29T15:21:19;26.90;99.90
7117;DHT22;3600;48.568;7.870;2023-07-29T15:23:46;26.80;99.90
7117;DHT22;3600;48.568;7.870;2023-07-29T15:26:13;26.70;99.90
7117;DHT22;3600;48.568;7.870;2023-07-29T15:28:40;26.60;99.90
7117;DHT22;3600;48.568;7.870;2023-07-29T15:31:07;26.50;99.90
7117;DHT22;3600;48.568;7.870;2023-07-29T15:33:34;26.40;99.90
7117;DHT22;3600;48.568;7.870;2023-07-29T15:36:01;26.20;99.90
7117;DHT22;3600;48.568;7.870;2023-07-29T15:38:31;26.20;99.90
7117;DHT22;3600;48.568;7.870;2023-07-29T15:40:59;26.10;99.90
7117;DHT22;3600;48.568;7.870;2023-07-29T15:43:28;25.90;99.90
7117;DHT22;3600;48.568;7.870;2023-07-29T15:45:56;25.80;99.90
7117;DHT22;3600;48.568;7.870;2023-07-29T15:48:24;25.70;99.90
7117;DHT22;3600;48.568;7.870;2023-07-29T15:51:02;25.60;99.90
7117;DHT22;3600;48.568;7.870;2023-07-29T15:53:31;25.50;99.90
7117;DHT22;3600;48.568;7.870;2023-07-29T15:55:58;25.40;99.90
7117;DHT22;3600;48.568;7.870;2023-07-29T15:58:31;25.00;99.90
7117;DHT22;3600;48.568;7.870;2023-07-29T16:00:58;24.60;99.90
7117;DHT22;3600;48.568;7.870;2023-07-29T16:03:26;24.30;99.90
7117;DHT22;3600;48.568;7.870;2023-07-29T16:05:54;24.00;99.90
7117;DHT22;3600;48.568;7.870;2023-07-29T16:08:22;23.80;99.90
7117;DHT22;3600;48.568;7.870;2023-07-29T16:10:50;23.80;99.90
7117;DHT22;3600;48.568;7.870;2023-07-29T16:13:18;23.70;99.90
7117;DHT22;3600;48.568;7.870;2023-07-29T16:15:46;23.70;99.90
7117;DHT22;3600;48.568;7.870;2023-07-29T16:18:13;23.60;99.90
7117;DHT22;3600;48.568;7.870;2023-07-29T16:20:40;23.60;99.90
7117;DHT22;3600;48.568;7.870;2023-07-29T16:23:06;23.70;99.90
7117;DHT22;3600;48.568;7.870;2023-07-29T16:25:35;23.70;99.90
7117;DHT22;3600;48.568;7.870;2023-07-29T16:28:02;23.60;99.90
7117;DHT22;3600;48.568;7.870;2023-07-29T16:30:29;23.60;99.90
7117;DHT22;3600;48.568;7.870;2023-07-29T16:32:56;23.40;99.90
7117;DHT22;3600;48.568;7.870;2023-07-29T16:35:23;23.40;99.90
7117;DHT22;3600;48.568;7.870;2023-07-29T16:37:55;23.30;99.90
7117;DHT22;3600;48.568;7.870;2023-07-29T16:41:00;23.30;99.90
7117;DHT22;3600;48.568;7.870;2023-07-29T16:47:18;23.40;99.90